Time;durP1;ratioP1;P1;durP2;ratioP2;P2;SDS_P1;SDS_P2;PMS_P1;PMS_P2;Temp;Humidity;BMP_temperature;BMP_pressure;BME280_temperature;BME280_humidity;BME280_pressure;Samples;Min_cycle;Max_cycle;Signal;HPM_P1;HPM_P2
2022/03/02 00:00:47;;;;;;;26.33;13.98;;;;;;;;;;5025914;28;20470;-78
2022/03/02 00:03:13;;;;;;;26.63;13.77;;;;;;;;;;5027882;28;20506;-78
2022/03/02 00:05:39;;;;;;;24.30;14.15;;;;;;;;;;5017312;28;20049;-77
2022/03/02 00:08:05;;;;;;;23.02;13.27;;;;;;;;;;5017485;28;20242;-78
2022/03/02 00:10:32;;;;;;;27.17;14.15;;;;;;;;;;5024680;28;20036;-77
2022/03/02 00:12:58;;;;;;;24.08;13.82;;;;;;;;;;5036158;28;20120;-76
2022/03/02 00:15:24;;;;;;;26.13;13.48;;;;;;;;;;5040760;28;20059;-75
2022/03/02 00:17:51;;;;;;;24.85;13.10;;;;;;;;;;5032000;28;20025;-76
2022/03/02 00:20:17;;;;;;;21.42;12.15;;;;;;;;;;5020496;28;20129;-77
2022/03/02 00:22:44;;;;;;;24.17;11.85;;;;;;;;;;5028570;28;20022;-77
2022/03/02 00:25:10;;;;;;;24.02;10.93;;;;;;;;;;5012677;28;20034;-77
2022/03/02 00:27:36;;;;;;;22.58;12.13;;;;;;;;;;5012576;28;20054;-78
2022/03/02 00:30:04;;;;;;;21.60;12.00;;;;;;;;;;5013490;28;20022;-77
2022/03/02 00:32:30;;;;;;;20.92;12.20;;;;;;;;;;5012797;28;20470;-76
2022/03/02 00:34:56;;;;;;;22.08;10.90;;;;;;;;;;5013995;28;20037;-77
2022/03/02 00:37:22;;;;;;;22.02;12.65;;;;;;;;;;5013544;28;20080;-77
2022/03/02 00:39:48;;;;;;;18.90;11.68;;;;;;;;;;5014486;28;20425;-77
2022/03/02 00:42:14;;;;;;;20.90;12.02;;;;;;;;;;5015313;28;20483;-76
2022/03/02 00:44:40;;;;;;;20.23;11.95;;;;;;;;;;5018191;28;20479;-77
2022/03/02 00:47:07;;;;;;;18.63;11.77;;;;;;;;;;5035236;28;20535;-77
2022/03/02 00:49:33;;;;;;;22.48;12.35;;;;;;;;;;5035168;28;20491;-75
2022/03/02 00:52:00;;;;;;;19.65;11.40;;;;;;;;;;5034715;28;20026;-75
2022/03/02 00:54:26;;;;;;;21.48;11.90;;;;;;;;;;5034835;28;20454;-76
2022/03/02 00:56:52;;;;;;;22.13;10.85;;;;;;;;;;5035369;28;20032;-76
2022/03/02 00:59:18;;;;;;;18.30;11.07;;;;;;;;;;5035246;28;20025;-76
2022/03/02 01:01:44;;;;;;;19.58;10.98;;;;;;;;;;5034849;28;20021;-76
2022/03/02 01:04:10;;;;;;;19.65;10.52;;;;;;;;;;5035030;28;20025;-76
2022/03/02 01:06:36;;;;;;;21.55;11.18;;;;;;;;;;5035123;28;20546;-76
2022/03/02 01:09:03;;;;;;;19.85;11.10;;;;;;;;;;5034613;28;20038;-76
2022/03/02 01:11:29;;;;;;;19.73;10.77;;;;;;;;;;5033095;28;20028;-77
2022/03/02 01:13:55;;;;;;;21.77;11.40;;;;;;;;;;5034579;28;20030;-76
2022/03/02 01:16:21;;;;;;;21.15;10.90;;;;;;;;;;5034888;28;20113;-76
2022/03/02 01:18:47;;;;;;;18.35;10.43;;;;;;;;;;5033532;28;20087;-78
2022/03/02 01:21:14;;;;;;;18.13;10.02;;;;;;;;;;5034370;28;20033;-76
2022/03/02 01:23:40;;;;;;;20.30;11.50;;;;;;;;;;5030408;28;20101;-78
2022/03/02 01:26:06;;;;;;;23.13;10.82;;;;;;;;;;5047773;28;20040;-78
2022/03/02 01:28:35;;;;;;;23.67;12.23;;;;;;;;;;5054160;28;20040;-79
2022/03/02 01:31:01;;;;;;;21.17;10.82;;;;;;;;;;5036843;28;20026;-76
2022/03/02 01:33:27;;;;;;;18.55;10.68;;;;;;;;;;5033214;28;20025;-76
2022/03/02 01:35:53;;;;;;;22.50;11.30;;;;;;;;;;5044391;28;20056;-79
2022/03/02 01:38:20;;;;;;;19.50;11.45;;;;;;;;;;5035217;28;20378;-77
2022/03/02 01:40:46;;;;;;;18.75;10.90;;;;;;;;;;5037579;28;20013;-77
2022/03/02 01:43:13;;;;;;;18.75;11.23;;;;;;;;;;5046612;28;20024;-77
2022/03/02 01:45:39;;;;;;;21.25;11.57;;;;;;;;;;5046052;28;20048;-76
2022/03/02 01:48:06;;;;;;;18.92;10.82;;;;;;;;;;5038820;28;20044;-78
2022/03/02 01:50:32;;;;;;;20.20;12.15;;;;;;;;;;5051252;28;20040;-77
2022/03/02 01:52:58;;;;;;;20.90;11.23;;;;;;;;;;5040066;28;20023;-76
2022/03/02 01:55:25;;;;;;;22.35;11.30;;;;;;;;;;5044599;28;20030;-76
2022/03/02 01:57:51;;;;;;;20.95;10.75;;;;;;;;;;5047001;28;20029;-76
2022/03/02 02:00:18;;;;;;;22.88;11.63;;;;;;;;;;5037050;28;20378;-76
2022/03/02 02:02:45;;;;;;;22.30;11.77;;;;;;;;;;5049493;28;20021;-76
2022/03/02 02:05:11;;;;;;;20.17;12.07;;;;;;;;;;5041677;28;20028;-79
2022/03/02 02:07:37;;;;;;;19.88;11.23;;;;;;;;;;5041602;28;20025;-77
2022/03/02 02:10:08;;;;;;;18.75;11.27;;;;;;;;;;5048277;28;20072;-76
2022/03/02 02:12:34;;;;;;;20.00;11.02;;;;;;;;;;5037031;28;20026;-77
2022/03/02 02:15:00;;;;;;;19.35;10.90;;;;;;;;;;5047114;28;20103;-77
2022/03/02 02:17:27;;;;;;;19.63;10.85;;;;;;;;;;5042405;28;20033;-75
2022/03/02 02:19:53;;;;;;;22.15;11.30;;;;;;;;;;5039903;28;20028;-74
2022/03/02 02:22:20;;;;;;;20.08;11.75;;;;;;;;;;5050512;28;20085;-75
2022/03/02 02:24:46;;;;;;;17.83;10.75;;;;;;;;;;5053254;28;20055;-76
2022/03/02 02:27:13;;;;;;;22.40;11.52;;;;;;;;;;5052903;28;20032;-76
2022/03/02 02:29:39;;;;;;;22.30;11.45;;;;;;;;;;5053581;28;20053;-75
2022/03/02 02:32:06;;;;;;;17.63;10.80;;;;;;;;;;5052406;28;20078;-77
2022/03/02 02:34:32;;;;;;;20.65;10.95;;;;;;;;;;5053497;28;20539;-76
2022/03/02 02:36:59;;;;;;;25.60;11.98;;;;;;;;;;5051740;28;20021;-76
2022/03/02 02:39:25;;;;;;;18.98;10.75;;;;;;;;;;5051483;28;20025;-75
2022/03/02 02:41:52;;;;;;;23.98;11.85;;;;;;;;;;5035971;28;20025;-76
2022/03/02 02:44:18;;;;;;;21.05;11.57;;;;;;;;;;5036976;28;20056;-75
2022/03/02 02:46:45;;;;;;;21.63;10.95;;;;;;;;;;5038120;28;20022;-75
2022/03/02 02:49:11;;;;;;;22.70;12.52;;;;;;;;;;5044490;28;20041;-76
2022/03/02 02:51:37;;;;;;;22.10;11.63;;;;;;;;;;5033580;28;20036;-76
2022/03/02 02:54:03;;;;;;;21.13;11.15;;;;;;;;;;5043513;28;20029;-76
2022/03/02 02:56:29;;;;;;;23.55;11.38;;;;;;;;;;5038347;28;20039;-77
2022/03/02 02:58:55;;;;;;;21.08;11.27;;;;;;;;;;5036649;28;20021;-77
2022/03/02 03:01:21;;;;;;;21.65;11.50;;;;;;;;;;5045649;28;20033;-76
2022/03/02 03:03:48;;;;;;;18.65;10.68;;;;;;;;;;5033633;28;20096;-76
2022/03/02 03:06:14;;;;;;;20.83;11.75;;;;;;;;;;5050870;28;20029;-77
2022/03/02 03:08:40;;;;;;;22.85;10.77;;;;;;;;;;5052174;28;20119;-76
2022/03/02 03:11:06;;;;;;;21.42;11.00;;;;;;;;;;5052799;28;20017;-77
2022/03/02 03:13:32;;;;;;;22.08;10.98;;;;;;;;;;5043563;28;20025;-77
2022/03/02 03:15:59;;;;;;;18.67;10.70;;;;;;;;;;5051835;28;20029;-76
2022/03/02 03:18:25;;;;;;;18.30;10.90;;;;;;;;;;5052162;28;20041;-75
2022/03/02 03:20:51;;;;;;;23.90;11.25;;;;;;;;;;5051255;28;20478;-77
2022/03/02 03:23:17;;;;;;;19.85;11.00;;;;;;;;;;5032977;28;20040;-77
2022/03/02 03:25:43;;;;;;;22.42;12.00;;;;;;;;;;5031945;28;20032;-77
2022/03/02 03:28:09;;;;;;;21.95;11.52;;;;;;;;;;5032818;28;20029;-76
2022/03/02 03:30:35;;;;;;;21.83;12.38;;;;;;;;;;5025111;28;20105;-76
2022/03/02 03:33:04;;;;;;;21.35;11.45;;;;;;;;;;5013277;28;20089;-76
2022/03/02 03:35:30;;;;;;;22.17;11.85;;;;;;;;;;5012316;28;20033;-76
2022/03/02 03:37:56;;;;;;;23.60;11.60;;;;;;;;;;5017162;28;20034;-77
2022/03/02 03:40:23;;;;;;;18.52;10.68;;;;;;;;;;5022781;28;20029;-75
2022/03/02 03:42:50;;;;;;;18.02;11.02;;;;;;;;;;5030412;28;20025;-75
2022/03/02 03:45:16;;;;;;;21.88;11.40;;;;;;;;;;5030614;28;20135;-77
2022/03/02 03:47:42;;;;;;;20.05;10.90;;;;;;;;;;5029880;28;20525;-76
2022/03/02 03:50:09;;;;;;;16.92;9.55;;;;;;;;;;5030440;28;20017;-76
2022/03/02 03:52:36;;;;;;;20.27;11.48;;;;;;;;;;5030422;28;20025;-77
2022/03/02 03:55:03;;;;;;;20.75;11.18;;;;;;;;;;5022475;28;20072;-76
2022/03/02 03:57:29;;;;;;;19.58;10.93;;;;;;;;;;5016279;28;20034;-77
2022/03/02 03:59:56;;;;;;;23.50;11.02;;;;;;;;;;5016836;28;20104;-76
2022/03/02 04:02:22;;;;;;;19.80;10.68;;;;;;;;;;5029074;28;20094;-76
2022/03/02 04:04:48;;;;;;;20.17;12.15;;;;;;;;;;5012019;28;20026;-77
2022/03/02 04:07:14;;;;;;;19.83;10.48;;;;;;;;;;5013252;28;20069;-76
2022/03/02 04:09:40;;;;;;;22.40;11.30;;;;;;;;;;5012639;28;20564;-77
2022/03/02 04:12:06;;;;;;;20.90;11.35;;;;;;;;;;5012175;28;20026;-77
2022/03/02 04:14:32;;;;;;;19.48;10.77;;;;;;;;;;5020626;28;20037;-77
2022/03/02 04:16:58;;;;;;;21.48;11.07;;;;;;;;;;5012056;28;20127;-77
2022/03/02 04:19:24;;;;;;;24.52;12.05;;;;;;;;;;5030397;28;20061;-77
2022/03/02 04:21:50;;;;;;;20.13;11.52;;;;;;;;;;5027666;28;20040;-77
2022/03/02 04:24:16;;;;;;;19.73;11.38;;;;;;;;;;5022503;28;20040;-76
2022/03/02 04:26:43;;;;;;;19.80;11.13;;;;;;;;;;5032126;28;20025;-76
2022/03/02 04:29:10;;;;;;;19.92;11.85;;;;;;;;;;5017882;28;20034;-75
2022/03/02 04:31:36;;;;;;;17.90;11.07;;;;;;;;;;5012388;28;20375;-76
2022/03/02 04:34:02;;;;;;;22.00;11.15;;;;;;;;;;5029364;28;20061;-76
2022/03/02 04:36:28;;;;;;;22.00;11.57;;;;;;;;;;5016752;28;20101;-75
2022/03/02 04:38:54;;;;;;;22.08;11.68;;;;;;;;;;5015700;28;20356;-76
2022/03/02 04:41:20;;;;;;;23.95;12.23;;;;;;;;;;5031813;28;20104;-77
2022/03/02 04:43:46;;;;;;;22.88;12.43;;;;;;;;;;5030557;28;20101;-76
2022/03/02 04:46:12;;;;;;;23.10;12.02;;;;;;;;;;5022183;28;20033;-76
2022/03/02 04:48:38;;;;;;;20.92;11.45;;;;;;;;;;5030272;28;20063;-77
2022/03/02 04:51:04;;;;;;;21.92;11.90;;;;;;;;;;5012635;28;20475;-76
2022/03/02 04:53:31;;;;;;;26.10;11.77;;;;;;;;;;5018633;28;20057;-75
2022/03/02 04:55:57;;;;;;;22.80;12.02;;;;;;;;;;5029444;28;20117;-77
2022/03/02 04:58:23;;;;;;;19.75;11.40;;;;;;;;;;5021059;28;20069;-76
2022/03/02 05:00:49;;;;;;;27.15;12.02;;;;;;;;;;5019516;28;20033;-77
2022/03/02 05:03:16;;;;;;;27.65;12.88;;;;;;;;;;5020605;28;20087;-77
2022/03/02 05:05:42;;;;;;;20.23;11.38;;;;;;;;;;5018362;28;20326;-75
2022/03/02 05:08:08;;;;;;;24.65;11.40;;;;;;;;;;5014494;28;20430;-77
2022/03/02 05:10:34;;;;;;;23.08;12.15;;;;;;;;;;5020804;28;20021;-76
2022/03/02 05:13:02;;;;;;;18.92;11.35;;;;;;;;;;5035894;28;20067;-76
2022/03/02 05:15:28;;;;;;;24.90;11.80;;;;;;;;;;5026623;28;20033;-77
2022/03/02 05:17:54;;;;;;;22.58;11.40;;;;;;;;;;5029512;28;20135;-76
2022/03/02 05:20:21;;;;;;;23.73;11.05;;;;;;;;;;5034890;28;20029;-76
2022/03/02 05:22:47;;;;;;;23.55;10.60;;;;;;;;;;5026684;28;20021;-76
2022/03/02 05:25:13;;;;;;;19.70;11.18;;;;;;;;;;5018596;28;20061;-77
2022/03/02 05:27:40;;;;;;;17.52;10.05;;;;;;;;;;5014912;28;20032;-76
2022/03/02 05:30:07;;;;;;;18.45;11.27;;;;;;;;;;5016039;28;20049;-76
2022/03/02 05:32:33;;;;;;;23.88;11.07;;;;;;;;;;5014859;28;20071;-76
2022/03/02 05:34:59;;;;;;;17.85;10.63;;;;;;;;;;5017164;28;20029;-75
2022/03/02 05:37:25;;;;;;;20.10;11.07;;;;;;;;;;5027372;28;20026;-75
2022/03/02 05:39:51;;;;;;;19.65;10.70;;;;;;;;;;5026154;28;20107;-75
2022/03/02 05:42:17;;;;;;;19.65;10.43;;;;;;;;;;5035084;28;20036;-76
2022/03/02 05:44:46;;;;;;;21.25;11.40;;;;;;;;;;5037625;28;20029;-75
2022/03/02 05:47:13;;;;;;;22.50;11.10;;;;;;;;;;5014868;28;20117;-75
2022/03/02 05:49:39;;;;;;;20.60;11.05;;;;;;;;;;5019039;28;20540;-76
2022/03/02 05:52:05;;;;;;;21.40;10.43;;;;;;;;;;5027969;28;20564;-76
2022/03/02 05:54:31;;;;;;;19.75;11.23;;;;;;;;;;5027556;28;20034;-77
2022/03/02 05:56:57;;;;;;;21.55;12.18;;;;;;;;;;5014483;28;20112;-76
2022/03/02 05:59:23;;;;;;;23.52;11.82;;;;;;;;;;5024421;28;20029;-76
2022/03/02 06:01:49;;;;;;;20.48;12.02;;;;;;;;;;5030494;28;20045;-76
2022/03/02 06:04:15;;;;;;;21.42;12.00;;;;;;;;;;5033757;28;20348;-76
2022/03/02 06:06:42;;;;;;;23.27;12.68;;;;;;;;;;5033931;28;20018;-76
2022/03/02 06:09:09;;;;;;;23.20;12.05;;;;;;;;;;5014984;28;20073;-76
2022/03/02 06:11:37;;;;;;;24.88;12.88;;;;;;;;;;5021439;28;20017;-76
2022/03/02 06:14:03;;;;;;;24.00;12.90;;;;;;;;;;5032805;28;20022;-76
2022/03/02 06:16:29;;;;;;;20.75;11.55;;;;;;;;;;5030862;28;20509;-77
2022/03/02 06:18:57;;;;;;;21.48;12.27;;;;;;;;;;5028941;28;20104;-77
2022/03/02 06:21:24;;;;;;;21.38;12.23;;;;;;;;;;5023323;28;20036;-77
2022/03/02 06:23:50;;;;;;;23.08;12.27;;;;;;;;;;5022372;28;20016;-78
2022/03/02 06:26:18;;;;;;;25.83;13.13;;;;;;;;;;5014034;28;20025;-76
2022/03/02 06:28:44;;;;;;;22.30;12.85;;;;;;;;;;5023218;28;20021;-76
2022/03/02 06:31:10;;;;;;;21.30;11.80;;;;;;;;;;5029008;28;20089;-78
2022/03/02 06:33:36;;;;;;;21.42;11.55;;;;;;;;;;5030025;28;20029;-76
2022/03/02 06:36:02;;;;;;;24.27;12.75;;;;;;;;;;5033144;28;20029;-76
2022/03/02 06:38:28;;;;;;;19.33;11.52;;;;;;;;;;5034213;28;20049;-75
2022/03/02 06:41:01;;;;;;;24.15;12.02;;;;;;;;;;5030673;28;20038;-76
2022/03/02 06:43:33;;;;;;;22.08;11.15;;;;;;;;;;5014370;28;20026;-75
2022/03/02 06:46:00;;;;;;;24.88;11.68;;;;;;;;;;5028267;28;20086;-76
2022/03/02 06:48:31;;;;;;;24.48;12.60;;;;;;;;;;5029393;28;20498;-77
2022/03/02 06:50:59;;;;;;;23.40;11.57;;;;;;;;;;5030984;28;20155;-76
2022/03/02 06:53:36;;;;;;;20.70;11.23;;;;;;;;;;5018117;28;20037;-78
2022/03/02 06:56:04;;;;;;;22.05;11.60;;;;;;;;;;5026266;28;20502;-75
2022/03/02 06:58:35;;;;;;;22.67;11.52;;;;;;;;;;5013778;28;20088;-76
2022/03/02 07:01:02;;;;;;;21.45;11.68;;;;;;;;;;5016481;28;20018;-77
2022/03/02 07:03:28;;;;;;;22.98;12.23;;;;;;;;;;5019446;28;20486;-76
2022/03/02 07:05:55;;;;;;;28.42;11.55;;;;;;;;;;5031183;28;20021;-75
2022/03/02 07:08:22;;;;;;;26.20;12.90;;;;;;;;;;5033328;28;20030;-76
2022/03/02 07:10:51;;;;;;;22.35;11.23;;;;;;;;;;5032705;28;20037;-77
2022/03/02 07:13:17;;;;;;;25.48;12.13;;;;;;;;;;5033323;28;20053;-76
2022/03/02 07:15:43;;;;;;;23.90;11.55;;;;;;;;;;5023538;28;20387;-76
2022/03/02 07:18:09;;;;;;;21.90;10.95;;;;;;;;;;5032118;28;20033;-76
2022/03/02 07:20:41;;;;;;;24.02;11.23;;;;;;;;;;5032927;28;20022;-78
2022/03/02 07:23:09;;;;;;;27.30;10.93;;;;;;;;;;5028912;28;20036;-77
2022/03/02 07:25:37;;;;;;;21.40;10.82;;;;;;;;;;5021521;28;20113;-77
2022/03/02 07:28:04;;;;;;;24.52;11.25;;;;;;;;;;5019307;28;20076;-76
2022/03/02 07:30:30;;;;;;;24.75;12.27;;;;;;;;;;5026523;28;20041;-77
2022/03/02 07:32:57;;;;;;;21.48;11.30;;;;;;;;;;5031258;28;20041;-77
2022/03/02 07:35:25;;;;;;;24.77;11.77;;;;;;;;;;5031611;28;20760;-75
2022/03/02 07:37:55;;;;;;;24.48;11.65;;;;;;;;;;5033406;28;20060;-75
2022/03/02 07:40:21;;;;;;;28.77;12.45;;;;;;;;;;5033829;28;20060;-77
2022/03/02 07:42:47;;;;;;;20.52;11.60;;;;;;;;;;5031191;28;20021;-83
2022/03/02 07:45:14;;;;;;;21.70;11.32;;;;;;;;;;5020256;28;20037;-80
2022/03/02 07:47:40;;;;;;;25.33;11.30;;;;;;;;;;5038269;28;20040;-78
2022/03/02 07:50:07;;;;;;;30.83;12.45;;;;;;;;;;5039423;28;20421;-81
2022/03/02 07:52:36;;;;;;;27.80;12.40;;;;;;;;;;5023500;28;20056;-79
2022/03/02 07:55:09;;;;;;;27.60;13.13;;;;;;;;;;5021029;28;20120;-78
2022/03/02 07:57:36;;;;;;;24.10;12.32;;;;;;;;;;5024045;28;20596;-76
2022/03/02 08:00:03;;;;;;;22.00;11.85;;;;;;;;;;5013038;28;20037;-79
2022/03/02 08:02:31;;;;;;;24.50;12.40;;;;;;;;;;5026894;28;20018;-78
2022/03/02 08:04:57;;;;;;;25.25;12.50;;;;;;;;;;5012854;28;20041;-79
2022/03/02 08:07:23;;;;;;;26.50;12.75;;;;;;;;;;5013654;28;20041;-80
2022/03/02 08:09:52;;;;;;;22.83;12.23;;;;;;;;;;5017061;28;20056;-81
2022/03/02 08:12:22;;;;;;;25.95;12.60;;;;;;;;;;5015373;28;20109;-77
2022/03/02 08:14:49;;;;;;;26.75;13.68;;;;;;;;;;5015119;28;20038;-79
2022/03/02 08:17:17;;;;;;;24.35;12.07;;;;;;;;;;5017126;28;20026;-79
2022/03/02 08:19:43;;;;;;;30.40;12.75;;;;;;;;;;5017183;28;20033;-79
2022/03/02 08:22:12;;;;;;;22.33;11.63;;;;;;;;;;5031208;28;20029;-78
2022/03/02 08:24:42;;;;;;;21.52;12.30;;;;;;;;;;5029673;28;20025;-78
2022/03/02 08:27:11;;;;;;;21.42;10.57;;;;;;;;;;5032070;28;20105;-80
2022/03/02 08:29:37;;;;;;;23.98;11.80;;;;;;;;;;5030186;28;20044;-77
2022/03/02 08:32:04;;;;;;;28.77;13.48;;;;;;;;;;5032720;28;20030;-79
2022/03/02 08:34:31;;;;;;;22.27;11.70;;;;;;;;;;5036016;28;20029;-77
2022/03/02 08:36:58;;;;;;;27.90;13.07;;;;;;;;;;5020838;28;20367;-75
2022/03/02 08:39:24;;;;;;;22.38;11.40;;;;;;;;;;5034087;28;20362;-77
2022/03/02 08:41:51;;;;;;;25.08;12.02;;;;;;;;;;5036366;28;20037;-78
2022/03/02 08:44:17;;;;;;;23.90;11.48;;;;;;;;;;5036103;28;20445;-78
2022/03/02 08:46:45;;;;;;;20.65;11.85;;;;;;;;;;5034323;28;20111;-79
2022/03/02 08:49:12;;;;;;;23.42;11.52;;;;;;;;;;5035761;28;20142;-80
2022/03/02 08:51:39;;;;;;;24.50;11.68;;;;;;;;;;5035980;28;20068;-77
2022/03/02 08:54:05;;;;;;;23.90;11.75;;;;;;;;;;5034551;28;20049;-78
2022/03/02 08:56:37;;;;;;;27.75;10.90;;;;;;;;;;5055250;28;20227;-79
2022/03/02 08:59:04;;;;;;;22.80;12.02;;;;;;;;;;5053641;28;20420;-77
2022/03/02 09:01:30;;;;;;;34.72;12.75;;;;;;;;;;5055449;28;20025;-77
2022/03/02 09:03:58;;;;;;;21.63;12.68;;;;;;;;;;5055578;28;20032;-77
2022/03/02 09:06:25;;;;;;;21.27;11.63;;;;;;;;;;5028859;28;20466;-77
2022/03/02 09:08:52;;;;;;;22.50;11.43;;;;;;;;;;5034951;28;20426;-77
2022/03/02 09:11:18;;;;;;;24.95;12.65;;;;;;;;;;5035527;28;20532;-77
2022/03/02 09:13:44;;;;;;;24.58;12.65;;;;;;;;;;5034152;28;20030;-78
2022/03/02 09:16:10;;;;;;;25.73;11.77;;;;;;;;;;5030094;28;20022;-79
2022/03/02 09:18:36;;;;;;;28.63;11.95;;;;;;;;;;5029490;28;20393;-79
2022/03/02 09:21:04;;;;;;;23.58;11.93;;;;;;;;;;5031162;28;20025;-79
2022/03/02 09:23:34;;;;;;;23.63;12.82;;;;;;;;;;5028677;28;20399;-78
2022/03/02 09:26:04;;;;;;;22.73;12.88;;;;;;;;;;5051274;28;20482;-79
2022/03/02 09:28:32;;;;;;;25.05;11.90;;;;;;;;;;5034504;28;20145;-79
2022/03/02 09:31:02;;;;;;;25.73;13.27;;;;;;;;;;5043834;28;20028;-77
2022/03/02 09:33:28;;;;;;;24.85;13.05;;;;;;;;;;5042359;28;20044;-78
2022/03/02 09:35:59;;;;;;;30.67;13.50;;;;;;;;;;5047233;28;20047;-79
2022/03/02 09:38:25;;;;;;;26.20;13.57;;;;;;;;;;5039733;28;20051;-76
2022/03/02 09:40:53;;;;;;;22.73;12.25;;;;;;;;;;5046174;28;20025;-77
2022/03/02 09:43:25;;;;;;;22.05;12.75;;;;;;;;;;5026324;28;20017;-79
2022/03/02 09:45:54;;;;;;;19.40;11.70;;;;;;;;;;5033467;28;20596;-78
2022/03/02 09:48:31;;;;;;;28.38;13.00;;;;;;;;;;5020622;28;20041;-79
2022/03/02 09:50:58;;;;;;;26.23;12.73;;;;;;;;;;5039161;28;20021;-78
2022/03/02 09:53:26;;;;;;;30.23;14.13;;;;;;;;;;5046902;28;20466;-77
2022/03/02 09:55:55;;;;;;;24.00;12.00;;;;;;;;;;5037562;28;20018;-77
2022/03/02 09:58:22;;;;;;;25.92;13.07;;;;;;;;;;5037978;28;20032;-77
2022/03/02 10:00:48;;;;;;;23.58;12.85;;;;;;;;;;5033634;28;20427;-78
2022/03/02 10:03:18;;;;;;;26.52;11.57;;;;;;;;;;5033289;28;20109;-78
2022/03/02 10:05:48;;;;;;;25.05;12.20;;;;;;;;;;5031059;28;20029;-78
2022/03/02 10:08:18;;;;;;;20.45;10.75;;;;;;;;;;5034176;28;20139;-78
2022/03/02 10:10:46;;;;;;;22.42;12.55;;;;;;;;;;5030671;28;20388;-79
2022/03/02 10:13:14;;;;;;;25.30;12.90;;;;;;;;;;5033510;28;20018;-79
2022/03/02 10:15:41;;;;;;;26.88;13.15;;;;;;;;;;5032834;28;20064;-78
2022/03/02 10:18:11;;;;;;;28.30;12.98;;;;;;;;;;5034372;28;20029;-78
2022/03/02 10:20:49;;;;;;;21.52;11.85;;;;;;;;;;5039588;28;20013;-79
2022/03/02 10:23:24;;;;;;;19.58;11.73;;;;;;;;;;5038182;28;20029;-79
2022/03/02 10:26:01;;;;;;;21.30;11.45;;;;;;;;;;5037430;28;20029;-78
2022/03/02 10:28:32;;;;;;;26.08;12.35;;;;;;;;;;5034335;28;20037;-75
2022/03/02 10:31:16;;;;;;;28.00;12.98;;;;;;;;;;5031566;28;20029;-77
2022/03/02 10:33:52;;;;;;;21.40;12.93;;;;;;;;;;5030825;28;20025;-76
2022/03/02 10:36:20;;;;;;;20.50;11.68;;;;;;;;;;5036070;28;20060;-77
2022/03/02 10:38:58;;;;;;;21.17;12.25;;;;;;;;;;5039730;28;20106;-77
2022/03/02 10:41:26;;;;;;;23.23;13.30;;;;;;;;;;5040517;28;20067;-78
2022/03/02 10:44:00;;;;;;;25.05;12.82;;;;;;;;;;5037208;28;20033;-77
2022/03/02 10:46:27;;;;;;;20.38;12.27;;;;;;;;;;5022468;28;20029;-77
2022/03/02 10:49:03;;;;;;;22.08;12.52;;;;;;;;;;5043439;28;20041;-78
2022/03/02 10:51:30;;;;;;;22.63;13.40;;;;;;;;;;5046105;28;20021;-76
2022/03/02 10:53:57;;;;;;;19.80;11.88;;;;;;;;;;5035571;28;20026;-77
2022/03/02 10:56:26;;;;;;;26.58;14.18;;;;;;;;;;5047739;28;20033;-77
2022/03/02 10:58:52;;;;;;;20.88;12.23;;;;;;;;;;5034801;28;20478;-78
2022/03/02 11:01:21;;;;;;;21.52;12.63;;;;;;;;;;5043582;28;20473;-76
2022/03/02 11:03:48;;;;;;;21.35;11.05;;;;;;;;;;5048407;28;20044;-76
2022/03/02 11:06:17;;;;;;;20.58;11.52;;;;;;;;;;5034560;28;20021;-75
2022/03/02 11:08:44;;;;;;;23.50;11.35;;;;;;;;;;5031721;28;20029;-75
2022/03/02 11:11:11;;;;;;;18.88;11.63;;;;;;;;;;5032501;28;20478;-76
2022/03/02 11:13:37;;;;;;;26.65;11.60;;;;;;;;;;5037150;28;20034;-76
2022/03/02 11:16:04;;;;;;;20.90;11.43;;;;;;;;;;5044240;28;20029;-75
2022/03/02 11:18:33;;;;;;;19.70;12.43;;;;;;;;;;5040993;28;20056;-78
2022/03/02 11:21:01;;;;;;;25.58;12.02;;;;;;;;;;5035541;28;20037;-76
2022/03/02 11:23:27;;;;;;;21.15;11.63;;;;;;;;;;5034429;28;20029;-76
2022/03/02 11:25:57;;;;;;;17.83;10.88;;;;;;;;;;5045818;28;20025;-77
2022/03/02 11:28:24;;;;;;;20.05;11.68;;;;;;;;;;5042548;28;20087;-78
2022/03/02 11:30:52;;;;;;;19.92;10.98;;;;;;;;;;5036793;28;20036;-75
2022/03/02 11:33:22;;;;;;;18.95;11.50;;;;;;;;;;5050821;28;20020;-78
2022/03/02 11:36:11;;;;;;;20.58;10.93;;;;;;;;;;5109922;27;20888;-78
2022/03/02 11:38:39;;;;;;;24.85;11.70;;;;;;;;;;5108219;28;20065;-77
2022/03/02 11:41:05;;;;;;;20.27;11.32;;;;;;;;;;5106033;28;20028;-77
2022/03/02 11:43:33;;;;;;;29.30;12.43;;;;;;;;;;5104143;28;20114;-76
2022/03/02 11:46:02;;;;;;;21.23;11.40;;;;;;;;;;5109027;28;20020;-77
2022/03/02 11:48:30;;;;;;;24.20;12.75;;;;;;;;;;5104500;28;20027;-77
2022/03/02 11:51:11;;;;;;;22.90;12.40;;;;;;;;;;5110147;28;20031;-78
2022/03/02 11:53:38;;;;;;;22.02;12.82;;;;;;;;;;5085956;28;20047;-79
2022/03/02 11:56:05;;;;;;;22.33;12.30;;;;;;;;;;5085593;28;20501;-76
2022/03/02 11:59:06;;;;;;;21.42;12.35;;;;;;;;;;5099996;28;20032;-78
2022/03/02 12:01:43;;;;;;;25.05;13.38;;;;;;;;;;5008143;28;20030;-76
2022/03/02 12:04:10;;;;;;;21.17;12.85;;;;;;;;;;5092119;28;20044;-77
2022/03/02 12:06:44;;;;;;;19.85;11.60;;;;;;;;;;5102160;28;20016;-77
2022/03/02 12:09:22;;;;;;;25.35;13.52;;;;;;;;;;5104628;28;20028;-77
2022/03/02 12:11:48;;;;;;;27.33;13.70;;;;;;;;;;5110662;28;20103;-77
2022/03/02 12:14:15;;;;;;;24.52;14.00;;;;;;;;;;5104720;28;20040;-78
2022/03/02 12:16:43;;;;;;;25.38;12.18;;;;;;;;;;5086333;28;20042;-78
2022/03/02 12:19:19;;;;;;;25.30;13.75;;;;;;;;;;5096516;28;20098;-77
2022/03/02 12:21:45;;;;;;;22.83;13.80;;;;;;;;;;5096771;28;20468;-78
2022/03/02 12:24:12;;;;;;;24.92;14.60;;;;;;;;;;5101437;28;20069;-76
2022/03/02 12:26:39;;;;;;;20.45;12.40;;;;;;;;;;5079759;28;20099;-77
2022/03/02 12:29:11;;;;;;;22.70;13.80;;;;;;;;;;5087762;28;20028;-76
2022/03/02 12:31:37;;;;;;;23.77;13.32;;;;;;;;;;5093725;28;20111;-76
2022/03/02 12:34:15;;;;;;;22.63;13.95;;;;;;;;;;5090103;28;20159;-76
2022/03/02 12:36:43;;;;;;;22.67;13.40;;;;;;;;;;5083579;28;20059;-77
2022/03/02 12:39:10;;;;;;;24.02;13.43;;;;;;;;;;5079771;28;20397;-75
2022/03/02 12:41:39;;;;;;;25.63;13.38;;;;;;;;;;5079836;28;20037;-77
2022/03/02 12:44:06;;;;;;;24.58;13.48;;;;;;;;;;5095537;28;20531;-76
2022/03/02 12:46:35;;;;;;;26.27;13.90;;;;;;;;;;5088143;28;20024;-77
2022/03/02 12:49:04;;;;;;;27.67;14.50;;;;;;;;;;5090841;28;20102;-77
2022/03/02 12:51:32;;;;;;;28.75;13.52;;;;;;;;;;5058302;28;20031;-76
2022/03/02 12:53:58;;;;;;;24.88;13.10;;;;;;;;;;5079663;28;20402;-76
2022/03/02 12:56:24;;;;;;;23.90;13.85;;;;;;;;;;5081947;28;20115;-76
2022/03/02 12:58:51;;;;;;;22.85;14.43;;;;;;;;;;5085103;28;20127;-78
2022/03/02 13:01:17;;;;;;;22.80;13.45;;;;;;;;;;5071740;28;20032;-76
2022/03/02 13:03:46;;;;;;;24.65;13.32;;;;;;;;;;5061395;28;20516;-76
2022/03/02 13:06:13;;;;;;;23.35;13.88;;;;;;;;;;5070587;28;20032;-79
2022/03/02 13:09:09;;;;;;;26.23;14.38;;;;;;;;;;5075284;28;20051;-76
2022/03/02 13:11:37;;;;;;;25.65;13.65;;;;;;;;;;5060051;28;20070;-75
2022/03/02 13:14:03;;;;;;;22.55;12.55;;;;;;;;;;5081561;28;20548;-76
2022/03/02 13:16:31;;;;;;;23.48;13.93;;;;;;;;;;5075295;28;20023;-75
2022/03/02 13:19:02;;;;;;;24.17;13.88;;;;;;;;;;5086483;28;20071;-76
2022/03/02 13:21:29;;;;;;;27.77;14.05;;;;;;;;;;5087698;28;20021;-79
2022/03/02 13:24:04;;;;;;;23.17;13.43;;;;;;;;;;5073912;28;20053;-77
2022/03/02 13:26:32;;;;;;;26.45;13.80;;;;;;;;;;5070123;28;20376;-79
2022/03/02 13:28:59;;;;;;;22.33;13.82;;;;;;;;;;5075132;28;20142;-76
2022/03/02 13:31:25;;;;;;;26.90;13.68;;;;;;;;;;5083691;28;20020;-76
2022/03/02 13:34:00;;;;;;;23.98;13.95;;;;;;;;;;5080904;28;20044;-78
2022/03/02 13:36:40;;;;;;;28.67;14.63;;;;;;;;;;5072981;28;20120;-77
2022/03/02 13:39:10;;;;;;;24.15;14.43;;;;;;;;;;5070554;28;20534;-77
2022/03/02 13:41:47;;;;;;;22.98;13.95;;;;;;;;;;5072651;28;20081;-75
2022/03/02 13:44:21;;;;;;;21.92;13.05;;;;;;;;;;5078530;28;20060;-77
2022/03/02 13:47:07;;;;;;;24.05;13.52;;;;;;;;;;5075704;28;20036;-77
2022/03/02 13:49:53;;;;;;;22.02;14.13;;;;;;;;;;5062305;28;20043;-76
2022/03/02 13:52:31;;;;;;;25.02;14.85;;;;;;;;;;5067565;28;20189;-77
2022/03/02 13:54:58;;;;;;;24.65;14.07;;;;;;;;;;5071373;28;20059;-77
2022/03/02 13:57:28;;;;;;;22.05;12.95;;;;;;;;;;5062630;28;20036;-77
2022/03/02 14:00:12;;;;;;;25.85;15.52;;;;;;;;;;5064084;28;20065;-77
2022/03/02 14:02:39;;;;;;;27.63;15.38;;;;;;;;;;5063496;28;20048;-76
2022/03/02 14:05:06;;;;;;;27.73;14.43;;;;;;;;;;5074983;28;20040;-76
2022/03/02 14:07:32;;;;;;;22.38;13.63;;;;;;;;;;5077583;28;20174;-76
2022/03/02 14:10:02;;;;;;;25.48;13.88;;;;;;;;;;5068239;28;20063;-76
2022/03/02 14:12:28;;;;;;;26.17;14.63;;;;;;;;;;5078377;28;20020;-77
2022/03/02 14:14:54;;;;;;;24.70;13.80;;;;;;;;;;5074463;28;20036;-76
2022/03/02 14:17:20;;;;;;;23.83;14.07;;;;;;;;;;5070813;28;20123;-77
2022/03/02 14:19:50;;;;;;;28.77;13.98;;;;;;;;;;5067900;28;20110;-81